Time;durP1;ratioP1;P1;durP2;ratioP2;P2;SDS_P1;SDS_P2;PMS_P1;PMS_P2;Temp;Humidity;BMP_temperature;BMP_pressure;BME280_temperature;BME280_humidity;BME280_pressure;Samples;Min_cycle;Max_cycle;Signal;HPM_P1;HPM_P2
2023/04/04 00:00:54;;;;;;;8.20;2.83;;;;;;;0.93;64.80;102963.84;5054133;28;20415;-75
2023/04/04 00:03:20;;;;;;;5.63;2.63;;;;;;;0.92;65.81;102967.28;5050538;28;20045;-75
2023/04/04 00:05:45;;;;;;;9.60;2.60;;;;;;;0.89;66.22;102961.88;5035905;28;20036;-75
2023/04/04 00:08:11;;;;;;;4.70;2.80;;;;;;;0.86;66.81;102965.25;5069114;28;20049;-75
2023/04/04 00:10:36;;;;;;;3.97;2.15;;;;;;;0.82;66.38;102969.41;5066552;28;20029;-75
2023/04/04 00:13:02;;;;;;;6.82;2.75;;;;;;;0.85;66.60;102974.78;5052417;28;20033;-75
2023/04/04 00:15:27;;;;;;;5.97;2.45;;;;;;;0.84;66.95;102979.91;5040068;28;20028;-75
2023/04/04 00:17:53;;;;;;;4.75;2.63;;;;;;;0.81;66.74;102972.81;5052271;28;20206;-75
2023/04/04 00:20:18;;;;;;;4.75;2.50;;;;;;;0.80;66.50;102976.25;5052023;28;20036;-75
2023/04/04 00:22:44;;;;;;;7.22;2.35;;;;;;;0.80;66.34;102971.03;5061256;28;20045;-75
2023/04/04 00:25:09;;;;;;;5.03;2.65;;;;;;;0.82;66.36;102965.91;5045499;28;20456;-75
2023/04/04 00:27:35;;;;;;;7.10;2.45;;;;;;;0.80;66.29;102967.53;5053545;28;20063;-75
2023/04/04 00:30:01;;;;;;;5.13;2.35;;;;;;;0.81;66.07;102975.44;5034971;28;20431;-75
2023/04/04 00:32:27;;;;;;;4.93;2.70;;;;;;;0.80;66.80;102977.97;5035243;28;20407;-75
2023/04/04 00:34:52;;;;;;;4.95;2.40;;;;;;;0.76;66.77;102973.41;5059177;28;20025;-75
2023/04/04 00:37:18;;;;;;;5.57;2.92;;;;;;;0.79;66.98;102977.09;5047187;28;20040;-75
2023/04/04 00:39:44;;;;;;;9.95;2.78;;;;;;;0.80;66.61;102970.16;5060769;28;20037;-75
2023/04/04 00:42:10;;;;;;;5.97;3.00;;;;;;;0.78;66.46;102969.16;5028398;28;20116;-75
2023/04/04 00:44:35;;;;;;;7.10;2.55;;;;;;;0.78;67.12;102970.06;5035017;28;20464;-75
2023/04/04 00:47:03;;;;;;;6.35;2.97;;;;;;;0.77;66.85;102967.38;5031595;28;20481;-75
2023/04/04 00:49:28;;;;;;;8.25;2.88;;;;;;;0.75;67.49;102963.81;5036580;28;20025;-75
2023/04/04 00:51:54;;;;;;;5.80;3.10;;;;;;;0.75;68.16;102972.50;5052033;28;20543;-75
2023/04/04 00:54:19;;;;;;;4.07;2.75;;;;;;;0.76;66.85;102973.41;5023561;28;20029;-75
2023/04/04 00:56:46;;;;;;;6.03;2.65;;;;;;;0.73;66.68;102974.13;5046461;28;20021;-75
2023/04/04 00:59:13;;;;;;;5.18;2.58;;;;;;;0.75;67.20;102966.41;5034806;28;20040;-75
2023/04/04 01:01:38;;;;;;;9.23;2.60;;;;;;;0.71;65.83;102972.25;5032670;28;20028;-75
2023/04/04 01:04:04;;;;;;;4.75;2.53;;;;;;;0.68;66.73;102966.91;5052444;28;20037;-75
2023/04/04 01:06:31;;;;;;;8.10;3.05;;;;;;;0.67;67.91;102958.19;5051261;28;20037;-75
2023/04/04 01:08:57;;;;;;;5.80;2.88;;;;;;;0.68;66.87;102962.56;5068112;28;20483;-79
2023/04/04 01:11:26;;;;;;;5.18;2.67;;;;;;;0.66;67.81;102955.47;5035185;28;20031;-79
2023/04/04 01:13:52;;;;;;;4.55;2.65;;;;;;;0.66;67.05;102960.69;5064134;28;20495;-79
2023/04/04 01:16:17;;;;;;;5.28;2.95;;;;;;;0.59;67.13;102957.78;5047079;28;20063;-79
2023/04/04 01:18:45;;;;;;;7.30;3.17;;;;;;;0.55;68.14;102949.72;5054115;28;20037;-80
2023/04/04 01:21:16;;;;;;;5.97;2.88;;;;;;;0.51;67.72;102942.53;5051589;28;20029;-79
2023/04/04 01:24:04;;;;;;;5.93;2.50;;;;;;;0.49;67.06;102944.16;5065398;28;20093;-79
2023/04/04 01:26:53;;;;;;;5.60;2.70;;;;;;;0.48;67.26;102945.00;5049723;28;20049;-75
2023/04/04 01:29:19;;;;;;;6.82;2.85;;;;;;;0.45;67.03;102944.84;5053252;28;20094;-75
2023/04/04 01:31:58;;;;;;;4.95;2.60;;;;;;;0.47;66.83;102948.38;5050922;28;20388;-75
2023/04/04 01:34:33;;;;;;;5.60;2.90;;;;;;;0.46;67.79;102947.50;5050224;28;20021;-75
2023/04/04 01:37:05;;;;;;;5.40;2.50;;;;;;;0.43;67.53;102943.03;5052122;28;20032;-75
2023/04/04 01:39:43;;;;;;;7.00;2.60;;;;;;;0.42;68.08;102942.94;5050709;28;20037;-75
2023/04/04 01:42:12;;;;;;;6.43;2.90;;;;;;;0.39;67.44;102935.84;5053658;28;20341;-75
2023/04/04 01:44:38;;;;;;;5.57;2.85;;;;;;;0.38;67.47;102938.38;5047105;28;20039;-75
2023/04/04 01:47:10;;;;;;;6.32;2.75;;;;;;;0.37;67.98;102934.88;5038495;28;20464;-75
2023/04/04 01:49:36;;;;;;;4.63;2.40;;;;;;;0.37;67.76;102941.78;5044865;28;20094;-75
2023/04/04 01:52:03;;;;;;;4.40;2.60;;;;;;;0.31;68.31;102937.16;5050315;28;20032;-75
2023/04/04 01:54:31;;;;;;;4.90;2.60;;;;;;;0.30;67.03;102932.75;5051661;28;20044;-75
2023/04/04 01:56:57;;;;;;;6.72;2.83;;;;;;;0.27;67.69;102916.94;5046884;28;20029;-75
2023/04/04 01:59:22;;;;;;;7.20;2.80;;;;;;;0.28;68.22;102926.56;5031966;28;20038;-75
2023/04/04 02:01:48;;;;;;;6.65;2.60;;;;;;;0.23;68.34;102930.63;5051993;28;20032;-75
2023/04/04 02:04:14;;;;;;;5.53;2.53;;;;;;;0.20;68.48;102938.31;5055882;28;20547;-75
2023/04/04 02:06:39;;;;;;;3.75;2.58;;;;;;;0.18;68.92;102939.91;5033227;28;20036;-75
2023/04/04 02:09:05;;;;;;;4.72;2.60;;;;;;;0.15;68.19;102938.03;5030532;28;20120;-75
2023/04/04 02:11:31;;;;;;;4.97;2.50;;;;;;;0.14;68.80;102932.75;5045212;28;20033;-75
2023/04/04 02:13:57;;;;;;;8.65;2.70;;;;;;;0.13;68.77;102933.56;5030387;28;20095;-75
2023/04/04 02:16:25;;;;;;;5.82;3.17;;;;;;;0.08;68.29;102938.53;5036760;28;20443;-75
2023/04/04 02:18:51;;;;;;;3.95;2.50;;;;;;;0.02;68.05;102935.56;5063107;28;20061;-75
2023/04/04 02:21:17;;;;;;;3.90;2.60;;;;;;;-0.02;68.79;102942.31;5041977;28;20450;-75
2023/04/04 02:23:42;;;;;;;4.63;2.67;;;;;;;-0.04;69.63;102950.88;5047021;28;20034;-75
2023/04/04 02:26:08;;;;;;;4.65;2.95;;;;;;;-0.10;69.91;102951.44;5052828;28;20049;-75
2023/04/04 02:28:36;;;;;;;6.22;2.53;;;;;;;-0.10;70.11;102954.03;5061955;28;20033;-75
2023/04/04 02:31:01;;;;;;;4.55;2.78;;;;;;;-0.12;70.26;102965.19;5051413;28;20078;-75
2023/04/04 02:33:28;;;;;;;7.93;2.92;;;;;;;-0.15;70.81;102970.19;5051437;28;20391;-75
2023/04/04 02:35:59;;;;;;;9.38;3.17;;;;;;;-0.17;71.08;102967.53;5049645;28;20116;-75
2023/04/04 02:38:25;;;;;;;5.60;2.90;;;;;;;-0.20;71.08;102969.94;5066761;28;20085;-75
2023/04/04 02:40:52;;;;;;;7.13;2.83;;;;;;;-0.22;71.11;102963.78;5031867;28;20099;-75
2023/04/04 02:43:17;;;;;;;7.40;3.05;;;;;;;-0.25;70.90;102953.16;5041289;28;20096;-75
2023/04/04 02:45:47;;;;;;;5.50;2.80;;;;;;;-0.24;71.61;102953.25;5039312;28;20033;-75
2023/04/04 02:48:19;;;;;;;6.25;2.58;;;;;;;-0.29;70.90;102946.00;5070600;28;20029;-75
2023/04/04 02:50:47;;;;;;;8.85;2.85;;;;;;;-0.35;71.59;102941.31;5054336;28;20065;-75
2023/04/04 02:53:14;;;;;;;9.88;3.03;;;;;;;-0.43;71.21;102946.09;5043255;28;20389;-75
2023/04/04 02:55:39;;;;;;;5.10;2.60;;;;;;;-0.43;71.28;102942.63;5068220;28;20041;-75
2023/04/04 02:58:05;;;;;;;6.40;2.97;;;;;;;-0.41;71.80;102945.31;5053819;28;20061;-75
2023/04/04 03:00:31;;;;;;;8.23;2.80;;;;;;;-0.41;70.47;102942.72;5044627;28;20392;-75
2023/04/04 03:02:57;;;;;;;3.95;2.47;;;;;;;-0.39;71.70;102944.59;5019875;28;20112;-75
2023/04/04 03:05:30;;;;;;;7.97;2.90;;;;;;;-0.43;71.67;102945.22;5060363;28;20128;-75
2023/04/04 03:07:57;;;;;;;5.95;2.70;;;;;;;-0.46;70.72;102948.53;5049314;28;20106;-75
2023/04/04 03:10:28;;;;;;;7.68;2.67;;;;;;;-0.48;70.57;102951.88;5036770;28;20031;-75
2023/04/04 03:12:55;;;;;;;7.55;3.10;;;;;;;-0.50;71.92;102945.66;5054570;28;20048;-75
2023/04/04 03:15:22;;;;;;;5.00;2.55;;;;;;;-0.53;71.70;102943.78;5054539;28;20128;-75
2023/04/04 03:17:48;;;;;;;4.72;2.63;;;;;;;-0.53;72.10;102941.19;5056732;28;20133;-75
2023/04/04 03:20:15;;;;;;;6.30;2.53;;;;;;;-0.57;71.17;102944.44;5052408;28;20052;-75
2023/04/04 03:22:41;;;;;;;4.85;2.90;;;;;;;-0.60;71.49;102946.84;5053254;28;20124;-75
2023/04/04 03:25:07;;;;;;;4.97;2.70;;;;;;;-0.64;71.27;102944.91;5066350;28;20025;-75
2023/04/04 03:27:33;;;;;;;5.22;2.90;;;;;;;-0.67;72.03;102942.09;5052200;28;20033;-75
2023/04/04 03:29:59;;;;;;;4.45;2.53;;;;;;;-0.68;72.84;102938.59;5068102;28;20500;-75
2023/04/04 03:32:27;;;;;;;9.25;3.10;;;;;;;-0.77;72.45;102931.97;5041489;28;20033;-75
2023/04/04 03:34:53;;;;;;;7.65;3.10;;;;;;;-0.85;72.97;102936.72;5033036;28;20048;-75
2023/04/04 03:37:18;;;;;;;6.57;3.33;;;;;;;-0.93;73.45;102935.41;5069351;28;20048;-75
2023/04/04 03:39:44;;;;;;;4.70;2.75;;;;;;;-0.99;72.97;102927.22;5036345;28;20080;-75
2023/04/04 03:42:09;;;;;;;5.15;2.70;;;;;;;-1.03;73.52;102918.34;5050720;28;20116;-75
2023/04/04 03:44:38;;;;;;;4.90;3.10;;;;;;;-1.04;73.10;102923.44;5032942;28;20439;-75
2023/04/04 03:47:03;;;;;;;10.85;3.08;;;;;;;-1.06;73.46;102919.84;5048608;28;20124;-75
2023/04/04 03:49:33;;;;;;;5.97;2.75;;;;;;;-1.13;74.04;102909.09;5036493;28;20123;-75
2023/04/04 03:51:59;;;;;;;7.03;2.78;;;;;;;-1.14;73.40;102912.53;5053880;28;20087;-75
2023/04/04 03:54:27;;;;;;;7.20;3.33;;;;;;;-1.17;73.88;102907.13;5034672;28;20049;-75
2023/04/04 03:56:53;;;;;;;5.13;2.88;;;;;;;-1.18;73.73;102910.53;5041588;28;20076;-75
2023/04/04 03:59:19;;;;;;;4.53;2.40;;;;;;;-1.14;72.98;102915.13;5035736;28;20029;-75
2023/04/04 04:01:45;;;;;;;5.78;2.90;;;;;;;-1.14;73.89;102919.41;5035952;28;20029;-75
2023/04/04 04:04:10;;;;;;;4.70;2.58;;;;;;;-1.12;73.35;102923.88;5052360;28;20084;-75
2023/04/04 04:06:38;;;;;;;5.85;2.88;;;;;;;-1.12;73.19;102917.78;5048422;28;20136;-75
2023/04/04 04:09:04;;;;;;;8.57;3.05;;;;;;;-1.10;73.88;102919.69;5032670;28;20132;-75
2023/04/04 04:11:29;;;;;;;7.28;2.63;;;;;;;-1.10;74.03;102918.78;5059984;28;20029;-75
2023/04/04 04:13:55;;;;;;;9.63;3.10;;;;;;;-1.15;73.69;102917.63;5043051;28;20026;-75
2023/04/04 04:16:21;;;;;;;4.85;2.70;;;;;;;-1.20;74.00;102917.34;5044299;28;20046;-75
2023/04/04 04:18:48;;;;;;;5.13;3.05;;;;;;;-1.23;74.17;102914.56;5040974;28;20048;-75
2023/04/04 04:21:21;;;;;;;8.32;3.15;;;;;;;-1.28;74.12;102913.41;5042640;28;20056;-75
2023/04/04 04:23:46;;;;;;;5.20;2.90;;;;;;;-1.34;74.14;102913.91;5018072;28;20042;-75
2023/04/04 04:26:12;;;;;;;8.20;2.97;;;;;;;-1.31;73.87;102921.03;5056986;28;20029;-75
2023/04/04 04:28:38;;;;;;;7.82;2.80;;;;;;;-1.34;74.21;102906.13;5038415;28;20029;-75
2023/04/04 04:31:09;;;;;;;;;;;;;;;-1.31;72.64;102919.31;5059575;28;20024;-76
2023/04/04 04:33:41;;;;;;;7.75;3.00;;;;;;;-1.36;73.99;102919.81;5063727;28;20291;-75
2023/04/04 04:36:07;;;;;;;9.85;3.80;;;;;;;-1.38;74.35;102911.06;5051895;28;20041;-75
2023/04/04 04:38:46;;;;;;;6.05;2.92;;;;;;;-1.35;74.27;102919.03;5056794;28;20146;-75
2023/04/04 04:41:14;;;;;;;6.18;3.10;;;;;;;-1.37;73.86;102918.03;5044286;28;20033;-75
2023/04/04 04:43:44;;;;;;;5.28;3.20;;;;;;;-1.37;74.46;102916.34;5039582;28;20041;-75
2023/04/04 04:46:09;;;;;;;5.78;3.58;;;;;;;-1.40;74.41;102921.34;5037025;28;20048;-75
2023/04/04 04:48:35;;;;;;;6.40;3.25;;;;;;;-1.44;74.99;102918.47;5038952;28;20021;-75
2023/04/04 04:51:01;;;;;;;6.45;3.20;;;;;;;-1.42;76.19;102924.66;5017428;28;20051;-76
2023/04/04 04:53:37;;;;;;;7.80;3.35;;;;;;;-1.43;76.00;102931.56;5044715;28;20029;-75
2023/04/04 04:56:04;;;;;;;5.97;3.40;;;;;;;-1.42;76.50;102935.97;5029200;28;20395;-75
2023/04/04 04:58:31;;;;;;;6.30;3.20;;;;;;;-1.44;76.69;102934.97;5026411;28;20416;-75
2023/04/04 05:00:58;;;;;;;7.75;3.25;;;;;;;-1.43;76.50;102939.38;5044690;28;20045;-76
2023/04/04 05:03:32;;;;;;;7.32;3.45;;;;;;;-1.45;76.28;102942.69;5028084;28;20039;-76
2023/04/04 05:05:58;;;;;;;5.88;3.15;;;;;;;-1.44;76.78;102952.25;5032443;28;20040;-76
2023/04/04 05:08:23;;;;;;;11.18;3.60;;;;;;;-1.45;76.77;102942.69;5075063;28;20029;-75
2023/04/04 05:11:08;;;;;;;7.00;3.33;;;;;;;-1.47;77.20;102945.19;5044530;28;20496;-75
2023/04/04 05:13:34;;;;;;;6.80;3.10;;;;;;;-1.49;76.78;102948.47;5033068;28;20036;-75
2023/04/04 05:16:00;;;;;;;5.10;2.90;;;;;;;-1.50;76.74;102946.69;5062490;28;20484;-76
2023/04/04 05:18:27;;;;;;;5.82;2.97;;;;;;;-1.53;76.69;102945.72;5037524;28;20459;-75
2023/04/04 05:20:53;;;;;;;4.82;2.67;;;;;;;-1.52;76.96;102937.09;5036909;28;20034;-75
2023/04/04 05:23:20;;;;;;;9.57;3.42;;;;;;;-1.54;76.70;102938.69;5037496;28;20051;-76
2023/04/04 05:25:50;;;;;;;6.07;3.42;;;;;;;-1.54;76.83;102943.00;5015735;28;20353;-76
2023/04/04 05:28:16;;;;;;;6.43;3.38;;;;;;;-1.59;77.31;102942.72;5038701;28;20065;-76
2023/04/04 05:30:42;;;;;;;6.35;3.08;;;;;;;-1.57;78.16;102940.22;5016243;28;20099;-76
2023/04/04 05:33:12;;;;;;;8.65;3.50;;;;;;;-1.60;78.91;102951.31;5047402;28;20575;-75
2023/04/04 05:35:42;;;;;;;7.78;3.40;;;;;;;-1.64;78.69;102954.53;5060627;28;20565;-76
2023/04/04 05:38:08;;;;;;;7.72;3.50;;;;;;;-1.62;78.52;102952.03;5046288;28;20036;-76
2023/04/04 05:40:34;;;;;;;7.97;3.35;;;;;;;-1.62;78.52;102946.84;5034777;28;20065;-76
2023/04/04 05:43:08;;;;;;;5.75;3.47;;;;;;;-1.55;78.27;102959.41;5042488;28;20033;-75
2023/04/04 05:45:43;;;;;;;6.15;3.35;;;;;;;-1.49;78.28;102951.09;5034865;28;20061;-75
2023/04/04 05:48:10;;;;;;;6.97;3.80;;;;;;;-1.45;78.88;102956.56;5050065;28;20044;-75
2023/04/04 05:50:46;;;;;;;6.55;3.63;;;;;;;-1.38;78.44;102958.75;5035026;28;20025;-75
2023/04/04 05:53:12;;;;;;;7.57;3.72;;;;;;;-1.35;78.61;102955.44;5051212;28;20117;-75
2023/04/04 05:55:40;;;;;;;9.25;3.58;;;;;;;-1.27;78.48;102953.28;5056813;28;20089;-75
2023/04/04 05:58:06;;;;;;;7.38;3.92;;;;;;;-1.21;79.34;102953.63;5041794;28;20032;-75
2023/04/04 06:00:43;;;;;;;7.32;3.38;;;;;;;-1.18;78.45;102959.94;5041404;28;20104;-75
2023/04/04 06:03:09;;;;;;;8.90;3.78;;;;;;;-1.12;78.88;102957.69;5035091;28;20127;-75
2023/04/04 06:05:35;;;;;;;7.93;3.80;;;;;;;-1.05;78.73;102948.56;5051627;28;20064;-75
2023/04/04 06:08:00;;;;;;;5.65;3.55;;;;;;;-0.95;78.42;102957.81;5019599;28;20484;-75
2023/04/04 06:10:26;;;;;;;7.65;3.83;;;;;;;-0.84;78.42;102956.75;5068825;28;20074;-75
2023/04/04 06:12:54;;;;;;;11.15;3.60;;;;;;;-0.75;77.97;102961.56;5067442;28;20029;-75
2023/04/04 06:15:21;;;;;;;7.05;3.63;;;;;;;-0.66;78.02;102959.53;5059453;28;20043;-75
2023/04/04 06:17:46;;;;;;;8.82;4.35;;;;;;;-0.60;77.81;102959.84;5030914;28;20042;-75
2023/04/04 06:20:12;;;;;;;9.43;4.00;;;;;;;-0.50;77.42;102956.09;5054696;28;20032;-75
2023/04/04 06:22:39;;;;;;;6.25;4.00;;;;;;;-0.40;77.47;102960.09;5033714;28;20120;-74
2023/04/04 06:25:09;;;;;;;13.57;3.78;;;;;;;-0.36;77.13;102954.28;5062468;28;20472;-74
2023/04/04 06:27:35;;;;;;;5.90;3.45;;;;;;;-0.24;77.07;102960.19;5048658;28;20052;-74
2023/04/04 06:30:02;;;;;;;8.70;3.78;;;;;;;-0.14;76.86;102965.09;5076313;28;20026;-75
2023/04/04 06:32:30;;;;;;;9.77;4.45;;;;;;;0.01;76.77;102970.25;5067901;28;20029;-74
2023/04/04 06:34:56;;;;;;;6.95;3.88;;;;;;;0.10;76.50;102968.16;5065487;28;20083;-74
2023/04/04 06:37:36;;;;;;;8.68;4.32;;;;;;;0.21;76.53;102971.34;5053113;28;20384;-75
2023/04/04 06:40:10;;;;;;;7.32;3.90;;;;;;;0.32;75.66;102967.63;5047415;28;20068;-74
2023/04/04 06:42:36;;;;;;;9.32;4.20;;;;;;;0.42;75.09;102964.69;5067429;28;20059;-74
2023/04/04 06:45:03;;;;;;;7.30;4.75;;;;;;;0.54;75.52;102966.16;5062294;28;20040;-75
2023/04/04 06:47:30;;;;;;;6.80;3.72;;;;;;;0.63;75.22;102974.47;5067202;28;20028;-74
2023/04/04 06:49:56;;;;;;;8.98;4.28;;;;;;;0.76;75.23;102979.50;5063725;28;20134;-74
2023/04/04 06:52:22;;;;;;;8.93;4.10;;;;;;;0.85;74.12;102982.59;5068784;28;20544;-74
2023/04/04 06:54:49;;;;;;;6.13;4.03;;;;;;;0.94;74.23;102971.78;5058410;28;20020;-74
2023/04/04 06:57:14;;;;;;;9.88;4.30;;;;;;;1.07;74.33;102975.91;5033710;28;20510;-74
2023/04/04 06:59:40;;;;;;;6.03;3.67;;;;;;;1.16;73.58;102976.34;5052545;28;20025;-74
2023/04/04 07:02:06;;;;;;;8.05;4.03;;;;;;;1.23;72.89;102975.84;5036975;28;20037;-74
2023/04/04 07:04:33;;;;;;;6.85;3.70;;;;;;;1.32;72.07;102982.38;5053288;28;20388;-74
2023/04/04 07:06:59;;;;;;;6.20;3.67;;;;;;;1.37;71.53;102979.16;5070071;28;20442;-74
2023/04/04 07:09:25;;;;;;;9.32;3.70;;;;;;;1.47;71.96;102984.03;5053585;28;20116;-74
2023/04/04 07:11:50;;;;;;;6.80;3.90;;;;;;;1.55;71.79;102980.91;5033599;28;20480;-74
2023/04/04 07:14:16;;;;;;;10.00;4.15;;;;;;;1.66;70.86;102983.22;5028094;28;20030;-74
2023/04/04 07:16:42;;;;;;;9.15;3.70;;;;;;;1.79;70.25;102981.22;5053922;28;20033;-74
2023/04/04 07:19:07;;;;;;;8.98;4.32;;;;;;;1.91;70.23;102979.19;5054591;28;20029;-74
2023/04/04 07:21:33;;;;;;;9.00;3.78;;;;;;;2.03;69.52;102977.16;5069698;28;20567;-74
2023/04/04 07:24:01;;;;;;;8.35;3.83;;;;;;;2.17;69.83;102975.19;5054593;28;20029;-74
2023/04/04 07:26:26;;;;;;;12.00;4.40;;;;;;;2.28;68.65;102971.34;5036220;28;20037;-75
2023/04/04 07:28:52;;;;;;;11.82;4.25;;;;;;;2.38;69.83;102959.59;5034489;28;20056;-75
2023/04/04 07:31:17;;;;;;;18.73;6.18;;;;;;;2.52;68.98;102961.13;5048323;28;20132;-75
2023/04/04 07:33:43;;;;;;;6.85;4.15;;;;;;;2.66;67.71;102969.56;5050487;28;20034;-74
2023/04/04 07:36:08;;;;;;;8.27;3.88;;;;;;;2.77;67.64;102970.97;5049620;28;20040;-74
2023/04/04 07:38:35;;;;;;;7.47;4.35;;;;;;;2.89;67.60;102967.09;5034952;28;20045;-74
2023/04/04 07:41:00;;;;;;;8.00;3.70;;;;;;;3.05;66.81;102969.56;5052981;28;20090;-74
2023/04/04 07:43:26;;;;;;;8.77;3.88;;;;;;;3.17;66.90;102963.94;5040052;28;20033;-74
2023/04/04 07:45:53;;;;;;;9.52;3.28;;;;;;;3.30;65.85;102962.75;5047884;28;20116;-74
2023/04/04 07:48:19;;;;;;;7.30;3.40;;;;;;;3.40;65.61;102960.56;5044038;28;20543;-74
2023/04/04 07:50:44;;;;;;;8.68;3.90;;;;;;;3.52;64.55;102959.28;5034258;28;20128;-74
2023/04/04 07:53:10;;;;;;;7.57;3.85;;;;;;;3.64;64.50;102963.31;5043780;28;20017;-74
2023/04/04 07:55:35;;;;;;;7.72;3.92;;;;;;;3.78;65.12;102960.34;5050078;28;20041;-74
2023/04/04 07:58:01;;;;;;;5.82;3.53;;;;;;;3.88;64.71;102959.84;5038559;28;20108;-74
2023/04/04 08:00:27;;;;;;;8.27;3.53;;;;;;;3.99;62.34;102961.19;5042751;28;20037;-74
2023/04/04 08:02:54;;;;;;;8.52;3.90;;;;;;;4.10;62.35;102956.34;5038341;28;20132;-74
2023/04/04 08:05:20;;;;;;;7.03;3.78;;;;;;;4.23;61.07;102949.88;5043757;28;20040;-74
2023/04/04 08:07:46;;;;;;;9.68;3.83;;;;;;;4.37;60.69;102963.50;5060944;28;20496;-74
2023/04/04 08:10:11;;;;;;;8.32;4.82;;;;;;;4.45;60.79;102964.66;5052299;28;20043;-73
2023/04/04 08:12:38;;;;;;;6.45;3.13;;;;;;;4.56;59.60;102955.47;5035713;28;20460;-73
2023/04/04 08:15:04;;;;;;;7.65;3.33;;;;;;;4.68;58.66;102970.78;5049080;28;20511;-73
2023/04/04 08:17:30;;;;;;;8.00;3.28;;;;;;;4.79;60.15;102963.28;5042793;28;20044;-73
2023/04/04 08:19:55;;;;;;;6.28;3.30;;;;;;;4.86;57.68;102965.28;5036078;28;20136;-73
2023/04/04 08:22:21;;;;;;;6.82;3.30;;;;;;;4.96;58.33;102968.28;5032154;28;20053;-73
2023/04/04 08:24:46;;;;;;;6.10;3.47;;;;;;;5.09;57.00;102961.72;5032605;28;20050;-73
2023/04/04 08:27:13;;;;;;;6.18;2.83;;;;;;;5.21;55.43;102963.00;5052198;28;20075;-73
2023/04/04 08:29:39;;;;;;;5.28;2.90;;;;;;;5.29;56.52;102962.44;5035664;28;20103;-73
2023/04/04 08:32:05;;;;;;;7.80;3.28;;;;;;;5.40;56.49;102954.91;5051607;28;20410;-73
2023/04/04 08:34:30;;;;;;;6.95;3.20;;;;;;;5.49;53.03;102955.22;5062988;28;20075;-73
2023/04/04 08:36:56;;;;;;;7.82;2.60;;;;;;;5.58;52.66;102950.25;5020819;28;20460;-73
2023/04/04 08:39:22;;;;;;;6.53;2.50;;;;;;;5.67;50.75;102952.28;5047899;28;20061;-73
2023/04/04 08:42:00;;;;;;;7.90;2.80;;;;;;;5.78;54.59;102942.09;5037349;28;20435;-73
2023/04/04 08:44:27;;;;;;;10.25;2.83;;;;;;;5.84;51.59;102939.69;5042830;28;20040;-73
2023/04/04 08:46:53;;;;;;;7.40;2.42;;;;;;;5.91;49.08;102943.38;5053936;28;20103;-73
2023/04/04 08:49:22;;;;;;;4.03;2.00;;;;;;;5.95;50.67;102940.03;5051148;28;20472;-73
2023/04/04 08:51:51;;;;;;;7.72;2.30;;;;;;;6.03;50.10;102942.06;5053282;28;20413;-73
2023/04/04 08:54:17;;;;;;;6.25;2.15;;;;;;;6.05;49.52;102938.59;5055757;28;20037;-73
2023/04/04 08:56:42;;;;;;;7.75;2.63;;;;;;;6.12;48.32;102932.66;5049288;28;20025;-73
2023/04/04 08:59:10;;;;;;;5.07;2.30;;;;;;;6.15;47.35;102933.63;5033834;28;20045;-73
2023/04/04 09:01:36;;;;;;;6.60;2.42;;;;;;;6.28;48.99;102936.63;5051380;28;20104;-73
2023/04/04 09:04:03;;;;;;;5.63;2.17;;;;;;;6.36;48.14;102936.03;5061469;28;20033;-73
2023/04/04 09:06:29;;;;;;;8.65;2.70;;;;;;;6.44;46.62;102944.16;5052325;28;20024;-73
2023/04/04 09:08:58;;;;;;;5.90;2.30;;;;;;;6.45;46.11;102938.00;5058410;28;20033;-73
2023/04/04 09:11:25;;;;;;;5.50;2.05;;;;;;;6.54;47.96;102947.94;5033493;28;20472;-73
2023/04/04 09:13:53;;;;;;;8.60;3.10;;;;;;;6.60;45.13;102934.94;5034708;28;20487;-73
2023/04/04 09:16:18;;;;;;;7.82;2.10;;;;;;;6.73;45.31;102938.81;5046729;28;20059;-73
2023/04/04 09:18:44;;;;;;;5.35;2.30;;;;;;;6.84;45.19;102940.00;5031287;28;20121;-73
2023/04/04 09:21:11;;;;;;;4.68;2.17;;;;;;;6.93;45.74;102944.63;5060592;28;20035;-73
2023/04/04 09:23:37;;;;;;;6.55;2.35;;;;;;;6.99;44.52;102942.16;5017895;28;20175;-73
2023/04/04 09:26:03;;;;;;;9.80;2.63;;;;;;;7.01;44.75;102938.69;5051118;28;20103;-73
2023/04/04 09:28:30;;;;;;;4.55;2.50;;;;;;;7.08;44.14;102943.28;5050957;28;20083;-73
2023/04/04 09:30:55;;;;;;;8.25;2.33;;;;;;;7.17;45.22;102941.72;5067528;28;20043;-73
2023/04/04 09:33:23;;;;;;;5.50;2.67;;;;;;;7.29;45.08;102936.78;5038071;28;20033;-73
2023/04/04 09:36:02;;;;;;;8.38;2.45;;;;;;;7.38;45.45;102926.47;5043310;28;20025;-73
2023/04/04 09:38:29;;;;;;;9.27;2.70;;;;;;;7.53;45.34;102932.09;5048501;28;20041;-73
2023/04/04 09:40:55;;;;;;;5.72;2.58;;;;;;;7.66;45.61;102941.19;5051920;28;20044;-73
2023/04/04 09:43:23;;;;;;;5.05;2.15;;;;;;;7.70;43.71;102927.22;5052005;28;20045;-73
2023/04/04 09:45:50;;;;;;;5.97;2.42;;;;;;;7.79;43.93;102915.09;5044835;28;20196;-73
2023/04/04 09:48:31;;;;;;;4.82;2.25;;;;;;;7.95;44.96;102931.31;5042013;28;20120;-73
2023/04/04 09:51:00;;;;;;;5.18;2.40;;;;;;;7.97;42.20;102929.63;5037819;28;20507;-73
2023/04/04 09:53:28;;;;;;;6.53;2.40;;;;;;;8.07;42.99;102925.44;5030711;28;20116;-73
2023/04/04 09:55:56;;;;;;;7.55;2.50;;;;;;;8.24;42.32;102923.16;5047609;28;20032;-73
2023/04/04 09:58:26;;;;;;;4.95;2.25;;;;;;;8.34;42.51;102925.13;5048425;28;20083;-73
2023/04/04 10:00:55;;;;;;;7.25;2.30;;;;;;;8.43;42.52;102921.81;5037989;28;20115;-73
2023/04/04 10:03:24;;;;;;;3.67;2.05;;;;;;;8.53;46.14;102915.88;5038763;28;20049;-73
2023/04/04 10:06:03;;;;;;;7.70;2.15;;;;;;;8.64;43.49;102913.44;5044353;28;20040;-73
2023/04/04 10:08:29;;;;;;;3.63;2.00;;;;;;;8.63;41.63;102919.59;5031764;28;20052;-74
2023/04/04 10:11:00;;;;;;;5.72;2.30;;;;;;;8.66;40.24;102924.03;5044318;28;20082;-73
2023/04/04 10:13:40;;;;;;;8.32;2.80;;;;;;;8.57;41.89;102915.06;5051720;28;20044;-73
2023/04/04 10:16:07;;;;;;;9.68;2.50;;;;;;;8.67;42.27;102916.13;5045312;28;20090;-73
2023/04/04 10:18:34;;;;;;;4.70;2.30;;;;;;;8.83;41.69;102906.75;5017384;28;20028;-73
2023/04/04 10:21:03;;;;;;;6.05;2.40;;;;;;;9.01;40.75;102898.25;5066908;28;20040;-73
2023/04/04 10:23:29;;;;;;;7.00;2.55;;;;;;;9.18;41.36;102898.56;5032353;28;20412;-73
2023/04/04 10:25:58;;;;;;;7.35;2.17;;;;;;;9.31;40.81;102900.53;5041301;28;20246;-73
2023/04/04 10:28:25;;;;;;;5.50;2.25;;;;;;;9.38;40.01;102894.47;5036318;28;20344;-73
2023/04/04 10:30:54;;;;;;;5.35;2.13;;;;;;;9.53;39.72;102896.47;5050102;28;20072;-73
2023/04/04 10:33:29;;;;;;;5.20;2.38;;;;;;;9.67;42.57;102894.06;5051319;28;20087;-74
2023/04/04 10:36:01;;;;;;;5.25;2.50;;;;;;;9.72;39.13;102887.06;5043204;28;20079;-74
2023/04/04 10:38:30;;;;;;;7.13;2.60;;;;;;;9.84;39.56;102897.81;5045074;28;20068;-73
2023/04/04 10:41:01;;;;;;;5.93;2.40;;;;;;;9.78;38.15;102881.84;5059658;28;20432;-74
2023/04/04 10:43:31;;;;;;;6.80;2.30;;;;;;;9.75;38.44;102883.56;5045797;28;20036;-73
2023/04/04 10:46:06;;;;;;;6.70;2.40;;;;;;;9.88;39.14;102889.03;5051233;28;20100;-73
2023/04/04 10:48:33;;;;;;;4.13;2.35;;;;;;;10.04;38.42;102891.88;5051005;28;20116;-74
2023/04/04 10:50:58;;;;;;;7.82;2.60;;;;;;;10.14;38.15;102888.53;5051155;28;20065;-74
2023/04/04 10:53:24;;;;;;;6.13;2.50;;;;;;;10.19;37.14;102876.22;5033466;28;20036;-73
2023/04/04 10:55:51;;;;;;;5.43;2.45;;;;;;;10.18;37.31;102870.91;5064015;28;20364;-74
2023/04/04 10:58:17;;;;;;;7.80;2.20;;;;;;;10.32;38.43;102872.88;5046232;28;20045;-73
2023/04/04 11:00:51;;;;;;;5.95;2.42;;;;;;;10.58;38.82;102861.66;5050924;28;20028;-73
2023/04/04 11:03:17;;;;;;;8.25;2.72;;;;;;;10.80;37.86;102865.41;5038152;28;20037;-74
2023/04/04 11:05:50;;;;;;;6.53;2.97;;;;;;;11.04;38.54;102869.19;5048100;28;20028;-73
2023/04/04 11:08:23;;;;;;;5.18;2.60;;;;;;;11.16;40.41;102864.00;5053461;28;20037;-73
2023/04/04 11:10:51;;;;;;;5.15;2.50;;;;;;;11.24;37.32;102858.75;5043746;28;20053;-73
2023/04/04 11:13:30;;;;;;;6.50;2.55;;;;;;;11.36;36.15;102849.09;5038733;28;20032;-73
2023/04/04 11:15:59;;;;;;;9.77;2.80;;;;;;;11.53;37.14;102854.53;5053082;28;20493;-73
2023/04/04 11:18:30;;;;;;;6.10;2.33;;;;;;;11.63;37.18;102852.81;5052916;28;20573;-73
2023/04/04 11:20:56;;;;;;;8.60;2.70;;;;;;;11.73;36.60;102851.09;5054525;28;20037;-73
2023/04/04 11:23:24;;;;;;;7.97;2.70;;;;;;;11.78;34.78;102841.41;5051532;28;20026;-73
2023/04/04 11:25:51;;;;;;;5.32;2.45;;;;;;;11.90;36.25;102845.91;5034632;28;20052;-73
2023/04/04 11:28:43;;;;;;;8.10;2.53;;;;;;;12.08;37.57;102845.97;5050132;28;20518;-73
2023/04/04 11:31:19;;;;;;;6.97;2.97;;;;;;;12.22;35.78;102843.41;5054288;28;20040;-73